sensor_id;sensor_type;location;lat;lon;timestamp;temperature;humidity
67899;DHT22;54699;51.796;10.956;2023-05-10T00:01:42;22.20;48.50
67899;DHT22;54699;51.796;10.956;2023-05-10T00:04:10;22.10;48.50
67899;DHT22;54699;51.796;10.956;2023-05-10T00:06:37;22.10;48.40
67899;DHT22;54699;51.796;10.956;2023-05-10T00:09:03;22.10;48.40
67899;DHT22;54699;51.796;10.956;2023-05-10T00:11:30;22.10;48.40
67899;DHT22;54699;51.796;10.956;2023-05-10T00:13:57;22.10;48.40
67899;DHT22;54699;51.796;10.956;2023-05-10T00:16:24;22.10;48.50
67899;DHT22;54699;51.796;10.956;2023-05-10T00:18:50;22.10;48.40
67899;DHT22;54699;51.796;10.956;2023-05-10T00:21:18;22.10;48.50
67899;DHT22;54699;51.796;10.956;2023-05-10T00:23:45;22.10;48.50
67899;DHT22;54699;51.796;10.956;2023-05-10T00:26:13;22.10;48.40
67899;DHT22;54699;51.796;10.956;2023-05-10T00:28:40;22.10;48.50
67899;DHT22;54699;51.796;10.956;2023-05-10T00:31:06;22.10;48.50
67899;DHT22;54699;51.796;10.956;2023-05-10T00:33:33;22.10;48.50
67899;DHT22;54699;51.796;10.956;2023-05-10T00:36:00;22.10;48.40
67899;DHT22;54699;51.796;10.956;2023-05-10T00:38:28;22.10;48.40
67899;DHT22;54699;51.796;10.956;2023-05-10T00:40:54;22.10;48.50
67899;DHT22;54699;51.796;10.956;2023-05-10T00:43:21;22.00;48.50
67899;DHT22;54699;51.796;10.956;2023-05-10T00:45:48;22.00;48.50
67899;DHT22;54699;51.796;10.956;2023-05-10T00:48:15;22.10;48.50
67899;DHT22;54699;51.796;10.956;2023-05-10T00:50:42;22.00;48.50
67899;DHT22;54699;51.796;10.956;2023-05-10T00:53:09;22.00;48.50
67899;DHT22;54699;51.796;10.956;2023-05-10T00:55:38;22.00;48.50
67899;DHT22;54699;51.796;10.956;2023-05-10T00:58:05;22.00;48.50
67899;DHT22;54699;51.796;10.956;2023-05-10T01:00:32;22.00;48.50
67899;DHT22;54699;51.796;10.956;2023-05-10T01:03:00;22.00;48.50
67899;DHT22;54699;51.796;10.956;2023-05-10T01:05:26;22.00;48.50
67899;DHT22;54699;51.796;10.956;2023-05-10T01:07:53;22.00;48.50
67899;DHT22;54699;51.796;10.956;2023-05-10T01:10:20;22.00;48.50
67899;DHT22;54699;51.796;10.956;2023-05-10T01:12:48;22.00;48.50
67899;DHT22;54699;51.796;10.956;2023-05-10T01:15:15;22.00;48.50
67899;DHT22;54699;51.796;10.956;2023-05-10T01:17:44;22.00;48.50
67899;DHT22;54699;51.796;10.956;2023-05-10T01:20:13;22.00;48.60
67899;DHT22;54699;51.796;10.956;2023-05-10T01:22:45;22.00;48.60
67899;DHT22;54699;51.796;10.956;2023-05-10T01:31:39;22.00;48.50
67899;DHT22;54699;51.796;10.956;2023-05-10T01:34:25;22.00;48.50
67899;DHT22;54699;51.796;10.956;2023-05-10T01:36:58;22.00;48.60
67899;DHT22;54699;51.796;10.956;2023-05-10T01:39:32;22.00;48.60
67899;DHT22;54699;51.796;10.956;2023-05-10T01:42:07;22.00;48.60
67899;DHT22;54699;51.796;10.956;2023-05-10T01:44:37;22.00;48.50
67899;DHT22;54699;51.796;10.956;2023-05-10T01:47:11;21.90;48.50
67899;DHT22;54699;51.796;10.956;2023-05-10T01:49:43;21.90;48.50
67899;DHT22;54699;51.796;10.956;2023-05-10T01:52:14;21.90;48.50
67899;DHT22;54699;51.796;10.956;2023-05-10T01:54:45;21.90;48.60
67899;DHT22;54699;51.796;10.956;2023-05-10T01:57:18;21.90;48.60
67899;DHT22;54699;51.796;10.956;2023-05-10T01:59:49;21.90;48.50
67899;DHT22;54699;51.796;10.956;2023-05-10T02:02:20;21.90;48.60
67899;DHT22;54699;51.796;10.956;2023-05-10T02:04:49;21.90;48.50
67899;DHT22;54699;51.796;10.956;2023-05-10T02:07:17;21.90;48.50
67899;DHT22;54699;51.796;10.956;2023-05-10T02:09:45;21.90;48.70
67899;DHT22;54699;51.796;10.956;2023-05-10T02:12:13;21.90;48.50
67899;DHT22;54699;51.796;10.956;2023-05-10T02:14:42;21.90;48.50
67899;DHT22;54699;51.796;10.956;2023-05-10T02:17:11;21.90;48.60
67899;DHT22;54699;51.796;10.956;2023-05-10T02:19:40;21.90;48.60
67899;DHT22;54699;51.796;10.956;2023-05-10T02:22:08;21.90;48.60
67899;DHT22;54699;51.796;10.956;2023-05-10T02:24:36;21.90;48.60
67899;DHT22;54699;51.796;10.956;2023-05-10T02:27:05;21.90;48.60
67899;DHT22;54699;51.796;10.956;2023-05-10T02:29:33;21.80;48.60
67899;DHT22;54699;51.796;10.956;2023-05-10T02:32:01;21.90;48.60
67899;DHT22;54699;51.796;10.956;2023-05-10T02:34:29;21.90;48.60
67899;DHT22;54699;51.796;10.956;2023-05-10T02:36:58;21.90;48.50
67899;DHT22;54699;51.796;10.956;2023-05-10T02:39:26;21.80;48.60
67899;DHT22;54699;51.796;10.956;2023-05-10T02:41:54;21.90;48.60
67899;DHT22;54699;51.796;10.956;2023-05-10T02:44:23;21.90;48.60
67899;DHT22;54699;51.796;10.956;2023-05-10T02:46:53;21.90;48.60
67899;DHT22;54699;51.796;10.956;2023-05-10T02:49:21;21.80;48.50
67899;DHT22;54699;51.796;10.956;2023-05-10T02:51:49;21.80;48.60
67899;DHT22;54699;51.796;10.956;2023-05-10T02:54:24;21.80;48.60
67899;DHT22;54699;51.796;10.956;2023-05-10T02:56:56;21.80;48.60
67899;DHT22;54699;51.796;10.956;2023-05-10T02:59:25;21.80;48.60
67899;DHT22;54699;51.796;10.956;2023-05-10T03:01:52;21.80;48.70
67899;DHT22;54699;51.796;10.956;2023-05-10T03:04:19;21.80;48.60
67899;DHT22;54699;51.796;10.956;2023-05-10T03:06:46;21.80;48.60
67899;DHT22;54699;51.796;10.956;2023-05-10T03:09:14;21.80;48.60
67899;DHT22;54699;51.796;10.956;2023-05-10T03:11:47;21.80;48.70
67899;DHT22;54699;51.796;10.956;2023-05-10T03:14:23;21.80;48.60
67899;DHT22;54699;51.796;10.956;2023-05-10T03:17:04;21.80;48.60
67899;DHT22;54699;51.796;10.956;2023-05-10T03:19:37;21.80;48.70
67899;DHT22;54699;51.796;10.956;2023-05-10T03:22:10;21.80;48.70
67899;DHT22;54699;51.796;10.956;2023-05-10T03:24:39;21.80;48.70
67899;DHT22;54699;51.796;10.956;2023-05-10T03:27:09;21.80;48.60
67899;DHT22;54699;51.796;10.956;2023-05-10T03:29:36;21.80;48.70
67899;DHT22;54699;51.796;10.956;2023-05-10T03:32:05;21.70;48.50
67899;DHT22;54699;51.796;10.956;2023-05-10T03:34:32;21.80;48.70
67899;DHT22;54699;51.796;10.956;2023-05-10T03:36:59;21.80;48.70
67899;DHT22;54699;51.796;10.956;2023-05-10T03:39:25;21.80;48.70
67899;DHT22;54699;51.796;10.956;2023-05-10T03:41:52;21.70;48.50
67899;DHT22;54699;51.796;10.956;2023-05-10T03:44:20;21.70;48.60
67899;DHT22;54699;51.796;10.956;2023-05-10T03:46:47;21.80;48.60
67899;DHT22;54699;51.796;10.956;2023-05-10T03:49:14;21.80;48.70
67899;DHT22;54699;51.796;10.956;2023-05-10T03:51:40;21.80;48.60
67899;DHT22;54699;51.796;10.956;2023-05-10T03:54:07;21.80;48.60
67899;DHT22;54699;51.796;10.956;2023-05-10T03:56:34;21.70;48.50
67899;DHT22;54699;51.796;10.956;2023-05-10T03:59:01;21.80;48.60
67899;DHT22;54699;51.796;10.956;2023-05-10T04:01:33;21.70;48.60
67899;DHT22;54699;51.796;10.956;2023-05-10T04:04:00;21.70;48.70
67899;DHT22;54699;51.796;10.956;2023-05-10T04:06:27;21.70;48.50
67899;DHT22;54699;51.796;10.956;2023-05-10T04:08:53;21.80;48.40
67899;DHT22;54699;51.796;10.956;2023-05-10T04:11:20;21.60;45.70
67899;DHT22;54699;51.796;10.956;2023-05-10T04:13:47;21.70;45.90
67899;DHT22;54699;51.796;10.956;2023-05-10T04:16:15;21.70;46.30
67899;DHT22;54699;51.796;10.956;2023-05-10T04:18:43;21.60;44.10
67899;DHT22;54699;51.796;10.956;2023-05-10T04:21:12;21.60;44.10
67899;DHT22;54699;51.796;10.956;2023-05-10T04:23:39;21.60;44.40
67899;DHT22;54699;51.796;10.956;2023-05-10T04:26:06;21.50;41.70
67899;DHT22;54699;51.796;10.956;2023-05-10T04:28:33;21.50;42.40
67899;DHT22;54699;51.796;10.956;2023-05-10T04:31:01;21.50;43.30
67899;DHT22;54699;51.796;10.956;2023-05-10T04:33:28;21.40;43.00
67899;DHT22;54699;51.796;10.956;2023-05-10T04:35:56;21.40;42.10
67899;DHT22;54699;51.796;10.956;2023-05-10T04:38:23;21.20;40.50
67899;DHT22;54699;51.796;10.956;2023-05-10T04:40:50;20.90;40.00
67899;DHT22;54699;51.796;10.956;2023-05-10T04:43:17;20.70;40.10
67899;DHT22;54699;51.796;10.956;2023-05-10T04:45:47;20.60;40.10
67899;DHT22;54699;51.796;10.956;2023-05-10T04:48:17;20.80;40.20
67899;DHT22;54699;51.796;10.956;2023-05-10T04:50:44;20.80;41.30
67899;DHT22;54699;51.796;10.956;2023-05-10T04:53:14;20.90;40.30
67899;DHT22;54699;51.796;10.956;2023-05-10T04:55:42;21.00;40.10
67899;DHT22;54699;51.796;10.956;2023-05-10T04:58:09;21.10;40.60
67899;DHT22;54699;51.796;10.956;2023-05-10T05:00:36;21.20;40.90
67899;DHT22;54699;51.796;10.956;2023-05-10T05:03:04;21.10;40.90
67899;DHT22;54699;51.796;10.956;2023-05-10T05:05:31;21.10;41.70
67899;DHT22;54699;51.796;10.956;2023-05-10T05:07:58;20.90;40.90
67899;DHT22;54699;51.796;10.956;2023-05-10T05:10:27;20.80;39.80
67899;DHT22;54699;51.796;10.956;2023-05-10T05:12:55;20.80;39.50
67899;DHT22;54699;51.796;10.956;2023-05-10T05:15:22;20.80;39.70
67899;DHT22;54699;51.796;10.956;2023-05-10T05:17:49;20.80;39.00
67899;DHT22;54699;51.796;10.956;2023-05-10T05:20:17;20.70;38.90
67899;DHT22;54699;51.796;10.956;2023-05-10T05:22:45;20.50;39.00
67899;DHT22;54699;51.796;10.956;2023-05-10T05:25:12;20.50;40.10
67899;DHT22;54699;51.796;10.956;2023-05-10T05:27:41;20.60;39.30
67899;DHT22;54699;51.796;10.956;2023-05-10T05:30:09;20.50;39.30
67899;DHT22;54699;51.796;10.956;2023-05-10T05:32:37;20.50;39.30
67899;DHT22;54699;51.796;10.956;2023-05-10T05:35:06;20.40;39.20
67899;DHT22;54699;51.796;10.956;2023-05-10T05:37:44;20.50;39.20
67899;DHT22;54699;51.796;10.956;2023-05-10T05:40:14;20.50;39.10
67899;DHT22;54699;51.796;10.956;2023-05-10T05:42:43;20.50;39.10
67899;DHT22;54699;51.796;10.956;2023-05-10T05:45:10;20.70;39.10
67899;DHT22;54699;51.796;10.956;2023-05-10T05:47:40;20.60;39.00
67899;DHT22;54699;51.796;10.956;2023-05-10T05:50:07;20.70;39.20
67899;DHT22;54699;51.796;10.956;2023-05-10T05:52:37;21.10;39.00
67899;DHT22;54699;51.796;10.956;2023-05-10T05:55:07;21.40;39.00
67899;DHT22;54699;51.796;10.956;2023-05-10T05:57:34;21.40;39.00
67899;DHT22;54699;51.796;10.956;2023-05-10T06:00:03;21.70;39.60
67899;DHT22;54699;51.796;10.956;2023-05-10T06:02:33;21.60;39.10
67899;DHT22;54699;51.796;10.956;2023-05-10T06:05:00;21.50;39.00
67899;DHT22;54699;51.796;10.956;2023-05-10T06:07:26;21.50;39.30
67899;DHT22;54699;51.796;10.956;2023-05-10T06:09:55;21.40;39.20
67899;DHT22;54699;51.796;10.956;2023-05-10T06:12:22;21.60;39.30
67899;DHT22;54699;51.796;10.956;2023-05-10T06:14:49;21.60;38.70
67899;DHT22;54699;51.796;10.956;2023-05-10T06:17:17;21.40;39.20
67899;DHT22;54699;51.796;10.956;2023-05-10T06:19:44;21.40;39.10
67899;DHT22;54699;51.796;10.956;2023-05-10T06:22:11;21.30;39.40
67899;DHT22;54699;51.796;10.956;2023-05-10T06:24:38;21.20;39.20
67899;DHT22;54699;51.796;10.956;2023-05-10T06:27:05;21.40;39.40
67899;DHT22;54699;51.796;10.956;2023-05-10T06:29:32;21.50;39.10
67899;DHT22;54699;51.796;10.956;2023-05-10T06:31:59;21.30;39.30
67899;DHT22;54699;51.796;10.956;2023-05-10T06:34:28;21.20;39.40
67899;DHT22;54699;51.796;10.956;2023-05-10T06:36:59;21.10;39.90
67899;DHT22;54699;51.796;10.956;2023-05-10T06:39:26;21.00;40.10
67899;DHT22;54699;51.796;10.956;2023-05-10T06:41:54;20.90;40.20
67899;DHT22;54699;51.796;10.956;2023-05-10T06:44:21;20.80;40.70
67899;DHT22;54699;51.796;10.956;2023-05-10T06:46:47;20.70;41.00
67899;DHT22;54699;51.796;10.956;2023-05-10T06:49:16;20.60;41.20
67899;DHT22;54699;51.796;10.956;2023-05-10T06:51:45;20.40;41.60
67899;DHT22;54699;51.796;10.956;2023-05-10T06:54:12;20.50;41.80
67899;DHT22;54699;51.796;10.956;2023-05-10T06:56:38;20.60;41.90
67899;DHT22;54699;51.796;10.956;2023-05-10T06:59:05;20.90;41.80
67899;DHT22;54699;51.796;10.956;2023-05-10T07:01:32;21.00;41.30
67899;DHT22;54699;51.796;10.956;2023-05-10T07:03:59;21.10;41.00
67899;DHT22;54699;51.796;10.956;2023-05-10T07:06:26;21.30;41.00
67899;DHT22;54699;51.796;10.956;2023-05-10T07:08:55;21.50;40.90
67899;DHT22;54699;51.796;10.956;2023-05-10T07:11:24;21.50;40.70
67899;DHT22;54699;51.796;10.956;2023-05-10T07:13:52;21.60;40.90
67899;DHT22;54699;51.796;10.956;2023-05-10T07:16:20;21.60;40.90
67899;DHT22;54699;51.796;10.956;2023-05-10T07:18:47;21.70;40.80
67899;DHT22;54699;51.796;10.956;2023-05-10T07:21:15;21.90;40.80
67899;DHT22;54699;51.796;10.956;2023-05-10T07:23:42;21.90;40.80
67899;DHT22;54699;51.796;10.956;2023-05-10T07:26:11;21.70;41.10
67899;DHT22;54699;51.796;10.956;2023-05-10T07:28:39;21.70;41.30
67899;DHT22;54699;51.796;10.956;2023-05-10T07:31:06;21.90;41.40
67899;DHT22;54699;51.796;10.956;2023-05-10T07:33:32;21.80;41.70
67899;DHT22;54699;51.796;10.956;2023-05-10T07:36:06;22.20;41.30
67899;DHT22;54699;51.796;10.956;2023-05-10T07:38:33;22.40;41.20
67899;DHT22;54699;51.796;10.956;2023-05-10T07:41:04;22.40;41.60
67899;DHT22;54699;51.796;10.956;2023-05-10T07:43:35;22.60;41.70
67899;DHT22;54699;51.796;10.956;2023-05-10T07:46:06;22.50;42.00
67899;DHT22;54699;51.796;10.956;2023-05-10T07:48:36;22.70;42.10
67899;DHT22;54699;51.796;10.956;2023-05-10T07:51:04;22.80;42.50
67899;DHT22;54699;51.796;10.956;2023-05-10T07:53:35;23.00;42.40
67899;DHT22;54699;51.796;10.956;2023-05-10T07:58:48;23.10;41.50
67899;DHT22;54699;51.796;10.956;2023-05-10T08:01:15;23.40;41.90
67899;DHT22;54699;51.796;10.956;2023-05-10T08:03:43;23.40;41.80
67899;DHT22;54699;51.796;10.956;2023-05-10T08:06:10;23.20;42.00
67899;DHT22;54699;51.796;10.956;2023-05-10T08:08:37;23.50;41.80
67899;DHT22;54699;51.796;10.956;2023-05-10T08:11:04;23.50;41.50
67899;DHT22;54699;51.796;10.956;2023-05-10T08:13:36;23.50;41.20
67899;DHT22;54699;51.796;10.956;2023-05-10T08:16:05;23.50;41.40
67899;DHT22;54699;51.796;10.956;2023-05-10T08:18:32;23.50;41.40
67899;DHT22;54699;51.796;10.956;2023-05-10T08:20:59;23.50;41.40
67899;DHT22;54699;51.796;10.956;2023-05-10T08:23:26;23.60;41.40
67899;DHT22;54699;51.796;10.956;2023-05-10T08:25:53;23.50;41.60
67899;DHT22;54699;51.796;10.956;2023-05-10T08:28:20;23.50;41.50
67899;DHT22;54699;51.796;10.956;2023-05-10T08:30:47;23.50;41.70
67899;DHT22;54699;51.796;10.956;2023-05-10T08:33:15;23.50;41.80
67899;DHT22;54699;51.796;10.956;2023-05-10T08:35:43;23.50;41.80
67899;DHT22;54699;51.796;10.956;2023-05-10T08:38:12;23.50;42.80
67899;DHT22;54699;51.796;10.956;2023-05-10T08:40:41;23.50;41.60
67899;DHT22;54699;51.796;10.956;2023-05-10T08:43:10;23.50;41.70
67899;DHT22;54699;51.796;10.956;2023-05-10T08:45:40;23.50;41.70
67899;DHT22;54699;51.796;10.956;2023-05-10T08:48:15;23.60;41.70
67899;DHT22;54699;51.796;10.956;2023-05-10T08:50:44;23.50;41.80
67899;DHT22;54699;51.796;10.956;2023-05-10T08:53:14;23.60;41.80
67899;DHT22;54699;51.796;10.956;2023-05-10T08:55:42;23.60;41.90
67899;DHT22;54699;51.796;10.956;2023-05-10T08:58:09;23.30;42.50
67899;DHT22;54699;51.796;10.956;2023-05-10T09:00:36;23.30;42.70
67899;DHT22;54699;51.796;10.956;2023-05-10T09:03:04;23.50;42.50
67899;DHT22;54699;51.796;10.956;2023-05-10T09:05:33;23.70;42.10
67899;DHT22;54699;51.796;10.956;2023-05-10T09:08:02;23.70;42.20
67899;DHT22;54699;51.796;10.956;2023-05-10T09:10:30;23.80;42.30
67899;DHT22;54699;51.796;10.956;2023-05-10T09:12:58;23.80;42.10
67899;DHT22;54699;51.796;10.956;2023-05-10T09:15:25;23.80;42.30
67899;DHT22;54699;51.796;10.956;2023-05-10T09:17:52;23.80;42.60
67899;DHT22;54699;51.796;10.956;2023-05-10T09:20:27;23.80;42.60
67899;DHT22;54699;51.796;10.956;2023-05-10T09:22:57;23.80;42.50
67899;DHT22;54699;51.796;10.956;2023-05-10T09:25:24;23.80;42.30
67899;DHT22;54699;51.796;10.956;2023-05-10T09:27:52;23.80;42.30
67899;DHT22;54699;51.796;10.956;2023-05-10T09:30:23;23.70;42.30
67899;DHT22;54699;51.796;10.956;2023-05-10T09:32:54;23.70;42.90
67899;DHT22;54699;51.796;10.956;2023-05-10T09:35:23;23.70;43.50
67899;DHT22;54699;51.796;10.956;2023-05-10T09:37:55;23.80;44.10
67899;DHT22;54699;51.796;10.956;2023-05-10T09:40:35;23.80;43.50
67899;DHT22;54699;51.796;10.956;2023-05-10T09:43:06;23.80;43.80
67899;DHT22;54699;51.796;10.956;2023-05-10T09:45:37;23.70;44.70
67899;DHT22;54699;51.796;10.956;2023-05-10T09:48:04;23.60;44.70
67899;DHT22;54699;51.796;10.956;2023-05-10T09:50:34;23.90;44.80
67899;DHT22;54699;51.796;10.956;2023-05-10T09:53:01;24.10;44.30
67899;DHT22;54699;51.796;10.956;2023-05-10T09:55:38;24.10;44.10
67899;DHT22;54699;51.796;10.956;2023-05-10T09:58:09;24.30;44.00
67899;DHT22;54699;51.796;10.956;2023-05-10T10:00:37;24.40;43.90
67899;DHT22;54699;51.796;10.956;2023-05-10T10:03:06;24.40;43.90
67899;DHT22;54699;51.796;10.956;2023-05-10T10:05:39;24.40;44.10
67899;DHT22;54699;51.796;10.956;2023-05-10T10:08:09;24.40;44.20
67899;DHT22;54699;51.796;10.956;2023-05-10T10:10:37;24.20;44.80
67899;DHT22;54699;51.796;10.956;2023-05-10T10:13:05;24.30;44.70
67899;DHT22;54699;51.796;10.956;2023-05-10T10:15:33;24.40;44.10
67899;DHT22;54699;51.796;10.956;2023-05-10T10:18:02;24.40;44.30
67899;DHT22;54699;51.796;10.956;2023-05-10T10:20:30;24.40;44.30
67899;DHT22;54699;51.796;10.956;2023-05-10T10:22:57;24.20;44.20
67899;DHT22;54699;51.796;10.956;2023-05-10T10:25:25;24.10;44.20
67899;DHT22;54699;51.796;10.956;2023-05-10T10:27:59;24.00;44.40
67899;DHT22;54699;51.796;10.956;2023-05-10T10:30:37;23.90;44.90
67899;DHT22;54699;51.796;10.956;2023-05-10T10:33:29;24.10;44.90
67899;DHT22;54699;51.796;10.956;2023-05-10T10:36:03;24.10;44.80
67899;DHT22;54699;51.796;10.956;2023-05-10T10:38:37;23.90;44.80
67899;DHT22;54699;51.796;10.956;2023-05-10T10:41:29;23.90;44.90
67899;DHT22;54699;51.796;10.956;2023-05-10T10:47:01;23.80;45.30
67899;DHT22;54699;51.796;10.956;2023-05-10T10:49:31;24.00;45.70
67899;DHT22;54699;51.796;10.956;2023-05-10T10:54:58;23.80;45.70
67899;DHT22;54699;51.796;10.956;2023-05-10T10:57:30;23.80;45.70
67899;DHT22;54699;51.796;10.956;2023-05-10T11:02:49;23.30;46.50
67899;DHT22;54699;51.796;10.956;2023-05-10T11:05:26;23.60;46.40
67899;DHT22;54699;51.796;10.956;2023-05-10T11:08:06;23.70;46.00
67899;DHT22;54699;51.796;10.956;2023-05-10T11:10:35;23.90;46.20
67899;DHT22;54699;51.796;10.956;2023-05-10T11:13:04;23.80;46.00
67899;DHT22;54699;51.796;10.956;2023-05-10T11:15:33;23.80;46.10
67899;DHT22;54699;51.796;10.956;2023-05-10T11:18:16;23.80;46.00
67899;DHT22;54699;51.796;10.956;2023-05-10T11:20:44;23.40;46.40
67899;DHT22;54699;51.796;10.956;2023-05-10T11:23:16;23.60;46.50
67899;DHT22;54699;51.796;10.956;2023-05-10T11:25:45;23.80;46.10
67899;DHT22;54699;51.796;10.956;2023-05-10T11:28:21;23.70;45.90
67899;DHT22;54699;51.796;10.956;2023-05-10T11:30:49;23.80;46.10
67899;DHT22;54699;51.796;10.956;2023-05-10T11:33:17;23.70;46.00
67899;DHT22;54699;51.796;10.956;2023-05-10T11:35:45;23.70;46.10
67899;DHT22;54699;51.796;10.956;2023-05-10T11:38:13;23.60;46.20
67899;DHT22;54699;51.796;10.956;2023-05-10T11:40:40;23.70;46.60
67899;DHT22;54699;51.796;10.956;2023-05-10T11:43:08;23.80;46.40
67899;DHT22;54699;51.796;10.956;2023-05-10T11:45:39;23.30;47.10
67899;DHT22;54699;51.796;10.956;2023-05-10T11:48:11;23.10;47.70
67899;DHT22;54699;51.796;10.956;2023-05-10T11:50:39;23.20;47.50
67899;DHT22;54699;51.796;10.956;2023-05-10T11:53:06;23.40;47.40
67899;DHT22;54699;51.796;10.956;2023-05-10T11:55:38;23.50;47.80
67899;DHT22;54699;51.796;10.956;2023-05-10T11:58:09;23.50;47.80
67899;DHT22;54699;51.796;10.956;2023-05-10T12:00:36;23.50;47.80
67899;DHT22;54699;51.796;10.956;2023-05-10T12:03:05;23.40;47.80
67899;DHT22;54699;51.796;10.956;2023-05-10T12:05:32;23.70;47.50
67899;DHT22;54699;51.796;10.956;2023-05-10T12:08:12;23.70;47.20
67899;DHT22;54699;51.796;10.956;2023-05-10T12:10:41;23.40;47.50
67899;DHT22;54699;51.796;10.956;2023-05-10T12:13:10;23.40;47.60
67899;DHT22;54699;51.796;10.956;2023-05-10T12:15:43;23.60;47.30
67899;DHT22;54699;51.796;10.956;2023-05-10T12:18:10;23.80;47.20
67899;DHT22;54699;51.796;10.956;2023-05-10T12:20:38;23.90;47.30
67899;DHT22;54699;51.796;10.956;2023-05-10T12:23:08;24.00;46.90
67899;DHT22;54699;51.796;10.956;2023-05-10T12:25:36;24.00;47.00
67899;DHT22;54699;51.796;10.956;2023-05-10T12:28:05;23.70;46.90
67899;DHT22;54699;51.796;10.956;2023-05-10T12:30:33;23.50;47.10
67899;DHT22;54699;51.796;10.956;2023-05-10T12:33:06;23.70;47.00
67899;DHT22;54699;51.796;10.956;2023-05-10T12:35:43;23.70;47.10
67899;DHT22;54699;51.796;10.956;2023-05-10T12:38:26;23.80;46.90
67899;DHT22;54699;51.796;10.956;2023-05-10T12:40:56;23.90;46.70
67899;DHT22;54699;51.796;10.956;2023-05-10T12:43:24;24.00;46.60
67899;DHT22;54699;51.796;10.956;2023-05-10T12:45:51;24.00;46.80
67899;DHT22;54699;51.796;10.956;2023-05-10T12:48:19;24.00;46.70
67899;DHT22;54699;51.796;10.956;2023-05-10T12:50:46;24.10;46.60
67899;DHT22;54699;51.796;10.956;2023-05-10T12:53:15;24.00;46.60
67899;DHT22;54699;51.796;10.956;2023-05-10T12:55:42;24.10;46.50
67899;DHT22;54699;51.796;10.956;2023-05-10T12:58:09;23.90;46.60
67899;DHT22;54699;51.796;10.956;2023-05-10T13:00:36;23.70;47.00
67899;DHT22;54699;51.796;10.956;2023-05-10T13:03:03;23.90;46.80
67899;DHT22;54699;51.796;10.956;2023-05-10T13:05:31;23.90;46.50
67899;DHT22;54699;51.796;10.956;2023-05-10T13:07:58;23.90;46.80
67899;DHT22;54699;51.796;10.956;2023-05-10T13:10:25;23.90;46.90
67899;DHT22;54699;51.796;10.956;2023-05-10T13:12:52;23.90;46.80
67899;DHT22;54699;51.796;10.956;2023-05-10T13:15:19;24.10;46.70
67899;DHT22;54699;51.796;10.956;2023-05-10T13:17:46;24.10;46.60
67899;DHT22;54699;51.796;10.956;2023-05-10T13:20:12;24.00;46.50
67899;DHT22;54699;51.796;10.956;2023-05-10T13:22:41;24.00;46.50
67899;DHT22;54699;51.796;10.956;2023-05-10T13:25:10;24.00;46.50
67899;DHT22;54699;51.796;10.956;2023-05-10T13:27:37;23.90;46.50
67899;DHT22;54699;51.796;10.956;2023-05-10T13:30:04;24.00;46.50
67899;DHT22;54699;51.796;10.956;2023-05-10T13:32:33;24.00;46.60
67899;DHT22;54699;51.796;10.956;2023-05-10T13:35:02;24.00;46.80
67899;DHT22;54699;51.796;10.956;2023-05-10T13:37:29;24.00;46.90
67899;DHT22;54699;51.796;10.956;2023-05-10T13:39:58;23.80;47.10
67899;DHT22;54699;51.796;10.956;2023-05-10T13:42:25;23.60;47.40
67899;DHT22;54699;51.796;10.956;2023-05-10T13:44:52;23.70;47.60
67899;DHT22;54699;51.796;10.956;2023-05-10T13:47:19;23.80;47.50
67899;DHT22;54699;51.796;10.956;2023-05-10T13:49:47;23.90;47.40
67899;DHT22;54699;51.796;10.956;2023-05-10T13:52:14;23.80;47.20
67899;DHT22;54699;51.796;10.956;2023-05-10T13:54:41;23.80;48.10
67899;DHT22;54699;51.796;10.956;2023-05-10T13:57:16;23.90;47.30
67899;DHT22;54699;51.796;10.956;2023-05-10T13:59:45;24.00;47.10
67899;DHT22;54699;51.796;10.956;2023-05-10T14:02:12;24.00;47.00
67899;DHT22;54699;51.796;10.956;2023-05-10T14:04:39;23.90;47.10
67899;DHT22;54699;51.796;10.956;2023-05-10T14:07:06;23.80;47.20
67899;DHT22;54699;51.796;10.956;2023-05-10T14:09:35;23.70;47.00
67899;DHT22;54699;51.796;10.956;2023-05-10T14:12:02;23.50;47.30
67899;DHT22;54699;51.796;10.956;2023-05-10T14:14:31;23.70;47.50
67899;DHT22;54699;51.796;10.956;2023-05-10T14:16:58;23.50;47.70
67899;DHT22;54699;51.796;10.956;2023-05-10T14:19:25;23.50;48.00
67899;DHT22;54699;51.796;10.956;2023-05-10T14:21:56;23.50;48.00
67899;DHT22;54699;51.796;10.956;2023-05-10T14:24:23;23.50;47.90
67899;DHT22;54699;51.796;10.956;2023-05-10T14:26:50;23.60;48.70
67899;DHT22;54699;51.796;10.956;2023-05-10T14:29:19;23.50;47.80
67899;DHT22;54699;51.796;10.956;2023-05-10T14:31:47;23.50;47.80
67899;DHT22;54699;51.796;10.956;2023-05-10T14:34:16;23.30;47.90
67899;DHT22;54699;51.796;10.956;2023-05-10T14:36:44;23.30;48.30
67899;DHT22;54699;51.796;10.956;2023-05-10T14:39:11;23.40;48.40
67899;DHT22;54699;51.796;10.956;2023-05-10T14:41:38;23.40;48.20
67899;DHT22;54699;51.796;10.956;2023-05-10T14:44:07;23.40;48.20
67899;DHT22;54699;51.796;10.956;2023-05-10T14:46:33;23.40;48.20
67899;DHT22;54699;51.796;10.956;2023-05-10T14:49:02;23.40;48.30
67899;DHT22;54699;51.796;10.956;2023-05-10T14:51:31;23.40;48.50
67899;DHT22;54699;51.796;10.956;2023-05-10T14:53:58;23.30;48.90
67899;DHT22;54699;51.796;10.956;2023-05-10T14:56:25;23.20;49.10
67899;DHT22;54699;51.796;10.956;2023-05-10T14:58:53;23.20;49.20
67899;DHT22;54699;51.796;10.956;2023-05-10T15:01:20;23.20;49.30
67899;DHT22;54699;51.796;10.956;2023-05-10T15:03:47;23.10;49.70
67899;DHT22;54699;51.796;10.956;2023-05-10T15:06:15;23.10;49.80
67899;DHT22;54699;51.796;10.956;2023-05-10T15:08:42;23.00;49.70
67899;DHT22;54699;51.796;10.956;2023-05-10T15:11:09;23.00;49.70
67899;DHT22;54699;51.796;10.956;2023-05-10T15:13:36;23.10;49.80
67899;DHT22;54699;51.796;10.956;2023-05-10T15:16:03;23.10;49.90
67899;DHT22;54699;51.796;10.956;2023-05-10T15:18:30;23.10;50.00
67899;DHT22;54699;51.796;10.956;2023-05-10T15:20:57;23.00;52.00
67899;DHT22;54699;51.796;10.956;2023-05-10T15:23:25;23.00;52.00
67899;DHT22;54699;51.796;10.956;2023-05-10T15:25:52;22.90;52.10
67899;DHT22;54699;51.796;10.956;2023-05-10T15:28:20;22.90;52.50
67899;DHT22;54699;51.796;10.956;2023-05-10T15:30:47;22.90;53.00
67899;DHT22;54699;51.796;10.956;2023-05-10T15:33:14;22.80;52.90
67899;DHT22;54699;51.796;10.956;2023-05-10T15:35:41;22.80;53.10
67899;DHT22;54699;51.796;10.956;2023-05-10T15:38:08;22.80;52.90
67899;DHT22;54699;51.796;10.956;2023-05-10T15:40:36;22.80;53.10
67899;DHT22;54699;51.796;10.956;2023-05-10T15:43:03;22.80;53.00